Time;durP1;ratioP1;P1;durP2;ratioP2;P2;SDS_P1;SDS_P2;PMS_P1;PMS_P2;Temp;Humidity;BMP_temperature;BMP_pressure;BME280_temperature;BME280_humidity;BME280_pressure;Samples;Min_cycle;Max_cycle;Signal;HPM_P1;HPM_P2
2023/06/24 00:05:56;;;;;;;4.90;3.70;;;;;;;18.32;100.00;99133.20;271738;1257;22555;-88
2023/06/24 00:12:01;;;;;;;6.60;3.70;;;;;;;18.31;100.00;99135.11;272871;1272;23247;-88
2023/06/24 00:18:17;;;;;;;5.50;4.00;;;;;;;18.27;100.00;99139.78;270444;1268;22324;-89
2023/06/24 00:24:25;;;;;;;7.50;4.10;;;;;;;18.26;100.00;99135.77;270816;1268;22556;-88
2023/06/24 00:30:52;;;;;;;7.20;3.70;;;;;;;18.20;100.00;99138.39;273815;1270;23480;-88
2023/06/24 00:37:02;;;;;;;6.50;3.70;;;;;;;18.20;100.00;99139.97;271237;1260;23122;-89
2023/06/24 00:43:29;;;;;;;6.00;3.80;;;;;;;18.17;100.00;99134.79;269652;1267;23750;-90
2023/06/24 00:49:53;;;;;;;6.00;3.40;;;;;;;18.14;100.00;99134.77;269839;1270;24212;-88
2023/06/24 00:56:02;;;;;;;4.20;3.40;;;;;;;18.13;100.00;99131.86;270097;1269;22608;-89
2023/06/24 01:02:12;;;;;;;6.30;3.30;;;;;;;18.16;100.00;99130.46;269774;1269;22635;-88
2023/06/24 01:09:02;;;;;;;4.20;3.60;;;;;;;18.14;100.00;99130.02;269288;1270;23450;-88
2023/06/24 01:16:30;;;;;;;6.70;3.70;;;;;;;18.13;100.00;99123.31;268886;1266;22841;-89
2023/06/24 01:23:02;;;;;;;6.50;3.80;;;;;;;18.11;100.00;99128.50;269868;1272;24344;-88
2023/06/24 01:29:30;;;;;;;7.00;3.40;;;;;;;18.08;100.00;99140.73;269444;1272;22554;-87
2023/06/24 01:36:17;;;;;;;4.80;3.20;;;;;;;18.08;100.00;99153.31;271293;1259;23189;-87
2023/06/24 01:43:08;;;;;;;4.20;3.20;;;;;;;18.05;100.00;99159.77;270342;1268;22499;-87
2023/06/24 01:49:58;;;;;;;4.40;3.20;;;;;;;18.03;100.00;99155.92;270211;1272;25435;-86
2023/06/24 01:56:04;;;;;;;6.20;3.10;;;;;;;17.99;100.00;99155.13;271219;1272;22244;-87
2023/06/24 02:02:28;;;;;;;4.00;3.00;;;;;;;17.96;100.00;99154.21;271812;1262;22342;-87
2023/06/24 02:17:04;;;;;;;4.20;3.00;;;;;;;17.93;100.00;99156.34;271852;1270;22194;-87
2023/06/24 02:23:13;;;;;;;5.10;2.90;;;;;;;17.94;100.00;99154.41;272904;1266;22556;-87
2023/06/24 02:29:41;;;;;;;3.70;2.70;;;;;;;17.98;100.00;99151.43;273133;1267;22556;-87
2023/06/24 02:36:03;;;;;;;5.00;3.50;;;;;;;18.00;100.00;99153.77;273149;1267;22338;-87
2023/06/24 02:42:44;;;;;;;4.10;3.10;;;;;;;18.01;100.00;99153.91;273563;1268;22291;-87
2023/06/24 02:49:20;;;;;;;5.10;3.00;;;;;;;17.99;100.00;99161.30;273147;1268;22579;-87
2023/06/24 02:56:34;;;;;;;5.40;2.90;;;;;;;17.99;100.00;99162.80;273988;1254;22254;-87
2023/06/24 03:10:37;;;;;;;8.70;2.90;;;;;;;17.97;100.00;99162.59;274020;1272;22202;-87
2023/06/24 03:16:41;;;;;;;8.30;3.20;;;;;;;17.98;100.00;99165.84;273962;1267;22322;-85
2023/06/24 03:23:24;;;;;;;3.00;2.60;;;;;;;17.95;100.00;99166.27;270706;1267;22566;-89
2023/06/24 03:29:51;;;;;;;5.10;3.30;;;;;;;17.94;100.00;99169.52;269873;1267;22803;-89
2023/06/24 03:36:22;;;;;;;4.80;3.00;;;;;;;17.92;100.00;99172.23;270444;1269;23005;-89
2023/06/24 03:43:21;;;;;;;7.00;3.30;;;;;;;17.89;100.00;99178.63;271745;1270;22233;-89
2023/06/24 03:50:02;;;;;;;3.30;2.80;;;;;;;17.84;100.00;99175.70;273951;1270;22214;-89
2023/06/24 03:56:29;;;;;;;3.60;3.20;;;;;;;17.83;100.00;99177.37;273869;1269;22398;-89
2023/06/24 04:03:43;;;;;;;6.90;3.50;;;;;;;17.82;100.00;99175.41;270650;1269;22541;-88
2023/06/24 04:18:13;;;;;;;6.90;4.20;;;;;;;17.82;100.00;99182.61;269419;1272;23744;-92
2023/06/24 04:25:18;;;;;;;8.10;5.00;;;;;;;17.80;100.00;99191.66;265210;1270;5354697;-90
2023/06/24 04:38:20;;;;;;;4.50;3.90;;;;;;;17.75;100.00;99212.46;269805;1267;26198;-91
2023/06/24 04:45:25;;;;;;;4.90;3.80;;;;;;;17.72;100.00;99216.30;272460;1267;22240;-89
2023/06/24 04:52:17;;;;;;;9.10;5.00;;;;;;;17.71;100.00;99221.45;272686;1269;22404;-88
2023/06/24 04:58:32;;;;;;;6.20;4.50;;;;;;;17.69;100.00;99225.12;271797;1269;22512;-89
2023/06/24 05:04:51;;;;;;;6.40;4.40;;;;;;;17.68;100.00;99227.66;272845;1267;22202;-89
2023/06/24 05:11:16;;;;;;;5.30;4.80;;;;;;;17.65;100.00;99227.86;272653;1267;22328;-88
2023/06/24 05:42:31;;;;;;;16.60;7.40;;;;;;;17.65;100.00;99253.34;269630;1275;22304;-91
2023/06/24 05:49:47;;;;;;;8.80;7.80;;;;;;;17.63;100.00;99253.30;271818;1273;22585;-90
2023/06/24 05:57:13;;;;;;;12.40;7.70;;;;;;;17.63;100.00;99254.23;273225;1269;22605;-88
2023/06/24 06:04:15;;;;;;;9.80;7.70;;;;;;;17.65;100.00;99261.33;270131;1275;22575;-87
2023/06/24 06:12:12;;;;;;;10.80;7.90;;;;;;;17.66;100.00;99264.72;269521;1275;22646;-87
2023/06/24 06:19:15;;;;;;;13.70;8.90;;;;;;;17.69;100.00;99266.73;272605;1275;22212;-88
2023/06/24 06:26:28;;;;;;;10.20;7.50;;;;;;;17.73;100.00;99276.81;272672;1275;22998;-88
2023/06/24 06:34:28;;;;;;;10.40;7.90;;;;;;;17.76;100.00;99281.11;269673;1272;23394;-88
2023/06/24 06:41:52;;;;;;;12.20;9.30;;;;;;;17.76;100.00;99281.42;268688;1278;25616;-89
2023/06/24 06:56:18;;;;;;;14.60;10.60;;;;;;;17.70;100.00;99296.54;270159;1268;22541;-89
2023/06/24 07:02:47;;;;;;;17.80;12.20;;;;;;;17.65;100.00;99301.98;271968;1269;22234;-88
2023/06/24 07:11:00;;;;;;;14.90;11.20;;;;;;;17.59;100.00;99311.78;272857;1275;22233;-89
2023/06/24 07:18:48;;;;;;;17.00;11.80;;;;;;;17.58;100.00;99316.30;271958;1272;22530;-89
2023/06/24 07:27:03;;;;;;;14.40;11.20;;;;;;;17.68;100.00;99307.96;267125;1278;22561;-88
2023/06/24 07:34:49;;;;;;;15.50;11.10;;;;;;;17.75;100.00;99312.85;269738;1285;22345;-87
2023/06/24 07:41:57;;;;;;;18.10;12.50;;;;;;;17.78;100.00;99321.45;266876;1290;22598;-86
2023/06/24 07:48:45;;;;;;;19.70;13.10;;;;;;;17.76;100.00;99331.52;268165;1282;22636;-87
2023/06/24 07:56:24;;;;;;;19.60;14.40;;;;;;;17.70;100.00;99339.33;269879;1272;22244;-88
2023/06/24 08:03:53;;;;;;;18.60;14.60;;;;;;;17.69;100.00;99348.59;269609;1267;23269;-88
2023/06/24 08:11:09;;;;;;;22.40;16.40;;;;;;;17.68;100.00;99360.78;270567;1269;22543;-89
2023/06/24 08:18:51;;;;;;;23.40;17.30;;;;;;;17.63;100.00;99365.52;270744;1272;22326;-89
2023/06/24 08:34:15;;;;;;;30.00;21.00;;;;;;;17.79;100.00;99383.91;271984;1272;22361;-88
2023/06/24 08:41:45;;;;;;;26.40;20.80;;;;;;;17.92;100.00;99395.86;270645;1272;22217;-88
2023/06/24 08:49:49;;;;;;;22.90;18.00;;;;;;;18.04;100.00;99403.01;270345;1272;22658;-89
2023/06/24 08:56:48;;;;;;;26.20;19.10;;;;;;;18.12;100.00;99415.10;273227;1274;22180;-89
2023/06/24 09:03:22;;;;;;;21.50;15.40;;;;;;;18.11;100.00;99426.19;272551;1272;22212;-88
2023/06/24 09:18:22;;;;;;;12.90;10.10;;;;;;;17.91;100.00;99434.42;271166;1275;22549;-88
2023/06/24 09:25:30;;;;;;;12.30;9.60;;;;;;;17.84;100.00;99430.79;271017;1275;22542;-87
2023/06/24 09:33:08;;;;;;;12.50;9.10;;;;;;;18.00;100.00;99435.89;270586;1272;23527;-88
2023/06/24 09:40:37;;;;;;;15.30;9.90;;;;;;;18.21;100.00;99450.84;270071;1275;22304;-89
2023/06/24 09:47:51;;;;;;;11.60;9.20;;;;;;;18.33;100.00;99459.39;271223;1275;23296;-88
2023/06/24 09:55:32;;;;;;;12.40;9.60;;;;;;;18.33;100.00;99470.55;269903;1273;22575;-88
2023/06/24 10:01:42;;;;;;;13.30;9.80;;;;;;;18.30;100.00;99481.44;271957;1272;23851;-88
2023/06/24 10:08:20;;;;;;;12.10;10.00;;;;;;;18.27;100.00;99486.79;271350;1267;22531;-89
2023/06/24 10:14:24;;;;;;;16.50;10.20;;;;;;;18.22;100.00;99487.17;272164;1269;23128;-88
2023/06/24 10:21:10;;;;;;;14.30;10.60;;;;;;;18.25;100.00;99489.11;272687;1273;22397;-90
2023/06/24 10:28:36;;;;;;;11.70;7.80;;;;;;;18.26;100.00;99498.21;273562;1269;22698;-88
2023/06/24 10:35:54;;;;;;;14.70;8.60;;;;;;;18.28;100.00;99498.89;272951;1269;22199;-87
2023/06/24 10:44:04;;;;;;;16.20;8.00;;;;;;;18.42;100.00;99503.10;272944;1272;23572;-87
2023/06/24 10:51:33;;;;;;;10.60;7.90;;;;;;;18.54;100.00;99506.60;272867;1273;23504;-87
2023/06/24 10:58:15;;;;;;;10.70;8.20;;;;;;;18.55;100.00;99510.94;272029;1274;22523;-88
2023/06/24 11:04:16;;;;;;;12.70;8.80;;;;;;;18.52;100.00;99511.95;272946;1272;22407;-87
2023/06/24 11:10:28;;;;;;;11.60;8.10;;;;;;;18.54;100.00;99512.77;273220;1270;22232;-87
2023/06/24 11:17:03;;;;;;;11.00;8.60;;;;;;;18.58;100.00;99508.92;270856;1269;22530;-86
2023/06/24 11:30:42;;;;;;;16.70;11.10;;;;;;;18.55;100.00;99508.09;270762;1269;22579;-88
2023/06/24 11:38:38;;;;;;;12.80;11.00;;;;;;;18.60;100.00;99517.62;272110;1272;22188;-88
2023/06/24 11:45:10;;;;;;;14.40;10.20;;;;;;;18.59;100.00;99518.89;270996;1270;22393;-87
2023/06/24 11:51:41;;;;;;;13.20;10.30;;;;;;;18.54;100.00;99518.56;270929;1270;22607;-87
2023/06/24 11:58:25;;;;;;;13.80;10.60;;;;;;;18.46;100.00;99510.19;272164;1272;22614;-88
2023/06/24 12:04:36;;;;;;;15.60;11.90;;;;;;;18.30;100.00;99507.27;272713;1270;22221;-89
2023/06/24 12:10:39;;;;;;;14.60;11.10;;;;;;;18.13;100.00;99504.61;273806;1270;22416;-87
2023/06/24 12:16:42;;;;;;;15.70;10.90;;;;;;;18.07;100.00;99507.30;271355;1268;22599;-88
2023/06/24 12:23:11;;;;;;;11.90;10.20;;;;;;;18.06;100.00;99512.05;271293;1269;22195;-88
2023/06/24 12:29:24;;;;;;;8.10;6.10;;;;;;;17.92;100.00;99517.19;270348;1267;22561;-88
2023/06/24 12:35:42;;;;;;;6.90;5.30;;;;;;;17.70;100.00;99518.19;270386;1270;22535;-89
2023/06/24 12:41:43;;;;;;;7.50;5.20;;;;;;;17.61;100.00;99520.48;271456;1270;24689;-89
2023/06/24 12:47:59;;;;;;;7.30;6.20;;;;;;;17.61;100.00;99525.70;271213;1267;25367;-88
2023/06/24 12:55:19;;;;;;;6.60;5.40;;;;;;;17.59;100.00;99520.34;271563;1270;22553;-88
2023/06/24 13:01:29;;;;;;;7.90;5.50;;;;;;;17.62;100.00;99514.16;271214;1269;22570;-89
2023/06/24 13:21:45;;;;;;;10.50;5.00;;;;;;;17.63;100.00;99518.11;272627;1264;23033;-88
2023/06/24 13:28:29;;;;;;;5.10;4.20;;;;;;;17.62;100.00;99515.97;271790;1267;22638;-88
2023/06/24 13:35:49;;;;;;;5.40;3.80;;;;;;;17.55;100.00;99513.19;272331;1267;22469;-89
2023/06/24 13:43:10;;;;;;;6.50;5.40;;;;;;;17.46;100.00;99514.83;271538;1274;22232;-89
2023/06/24 13:49:57;;;;;;;;;;;;;;;;;;;;;
2023/06/24 13:58:14;;;;;;;8.70;4.30;;;;;;;17.25;100.00;99523.13;272083;1267;22670;-89
2023/06/24 14:05:45;;;;;;;10.10;5.40;;;;;;;17.31;100.00;99534.77;269378;1270;22551;-90
2023/06/24 14:19:58;;;;;;;8.50;5.90;;;;;;;17.33;100.00;99533.89;271279;1275;22315;-90
2023/06/24 14:26:36;;;;;;;;;;;;;;;;;;;;;
2023/06/24 14:32:50;;;;;;;8.60;5.40;;;;;;;17.27;100.00;99537.90;271573;1270;22594;-91
2023/06/24 14:46:53;;;;;;;8.50;6.10;;;;;;;17.13;100.00;99542.96;270684;1273;22709;-90
2023/06/24 14:53:02;;;;;;;7.40;6.10;;;;;;;17.08;100.00;99537.95;270424;1270;22549;-90
2023/06/24 14:59:53;;;;;;;11.80;6.60;;;;;;;17.06;100.00;99535.11;271536;1270;22504;-91
2023/06/24 15:06:45;;;;;;;10.20;6.10;;;;;;;16.96;100.00;99536.52;273027;1270;22408;-91
2023/06/24 15:13:38;;;;;;;9.60;7.50;;;;;;;16.96;100.00;99533.84;272738;1268;22176;-92
2023/06/24 15:20:37;;;;;;;11.20;8.40;;;;;;;16.92;100.00;99532.66;273945;1269;22253;-90
2023/06/24 15:27:03;;;;;;;9.30;7.40;;;;;;;16.94;100.00;99532.27;272074;1273;22363;-91
2023/06/24 15:33:57;;;;;;;10.90;7.70;;;;;;;17.01;100.00;99530.64;270818;1273;22852;-90
2023/06/24 15:41:50;;;;;;;;;;;;;;;;;;;;;
2023/06/24 15:49:34;;;;;;;11.40;7.50;;;;;;;16.94;100.00;99538.81;268242;1283;22450;-91
2023/06/24 15:57:31;;;;;;;14.60;8.80;;;;;;;16.93;100.00;99543.02;268524;1276;22541;-91
2023/06/24 16:03:43;;;;;;;13.50;8.90;;;;;;;16.89;100.00;99540.17;270344;1255;22601;-90
2023/06/24 16:10:40;;;;;;;11.70;8.60;;;;;;;16.87;100.00;99540.66;269768;1267;22564;-89
2023/06/24 16:17:03;;;;;;;12.80;9.80;;;;;;;16.88;100.00;99546.74;270612;1269;22532;-91
2023/06/24 16:23:49;;;;;;;12.60;9.10;;;;;;;16.89;100.00;99551.09;271379;1270;22598;-89
2023/06/24 16:31:12;;;;;;;11.60;9.10;;;;;;;16.85;100.00;99559.10;266694;1269;22482;-89
2023/06/24 16:38:41;;;;;;;16.90;8.80;;;;;;;16.81;100.00;99559.27;272020;1270;22233;-88
2023/06/24 16:53:13;;;;;;;10.50;7.80;;;;;;;16.53;100.00;99571.79;264362;1267;10002052;-90
2023/06/24 16:59:57;;;;;;;13.00;7.20;;;;;;;16.44;100.00;99572.35;272655;1267;22758;-89
2023/06/24 17:06:45;;;;;;;9.20;7.80;;;;;;;16.39;100.00;99574.48;273085;1267;22568;-88
2023/06/24 17:13:07;;;;;;;13.40;8.40;;;;;;;16.33;100.00;99578.70;272140;1268;23848;-86
2023/06/24 17:19:23;;;;;;;10.50;7.80;;;;;;;16.25;100.00;99580.45;271128;1267;22557;-88
2023/06/24 17:25:39;;;;;;;9.60;6.90;;;;;;;16.17;100.00;99575.65;271437;1267;23933;-87
2023/06/24 17:31:48;;;;;;;10.90;7.50;;;;;;;16.10;100.00;99572.20;271472;1269;22598;-88
2023/06/24 17:38:01;;;;;;;11.90;7.40;;;;;;;16.04;100.00;99572.84;273573;1269;22582;-87
2023/06/24 17:44:37;;;;;;;;;;;;;;;;;;;;;
2023/06/24 17:51:41;;;;;;;;;;;;;;;;;;;;;
2023/06/24 17:58:52;;;;;;;14.80;8.30;;;;;;;15.63;100.00;99554.58;272920;1277;22559;-87
2023/06/24 18:05:43;;;;;;;9.90;7.90;;;;;;;15.65;100.00;99556.71;272816;1274;23195;-87
2023/06/24 18:12:17;;;;;;;12.30;7.50;;;;;;;15.68;100.00;99548.74;270177;1272;22744;-87
2023/06/24 18:18:21;;;;;;;15.80;12.90;;;;;;;15.57;100.00;99543.30;270487;1272;24059;-88
2023/06/24 18:24:58;;;;;;;13.20;8.70;;;;;;;15.46;100.00;99540.64;270282;1270;23273;-87
2023/06/24 18:31:01;;;;;;;12.30;8.40;;;;;;;15.44;100.00;99536.30;273956;1267;22351;-88
2023/06/24 18:37:47;;;;;;;12.50;8.50;;;;;;;15.49;100.00;99541.50;273051;1270;22374;-87
2023/06/24 18:44:27;;;;;;;9.80;8.30;;;;;;;15.53;100.00;99538.41;273979;1270;22489;-88
2023/06/24 18:50:54;;;;;;;12.70;9.80;;;;;;;15.53;100.00;99537.08;264907;1272;10002166;-86
2023/06/24 18:57:19;;;;;;;12.40;9.70;;;;;;;15.49;100.00;99539.75;271242;1273;22447;-87
2023/06/24 19:03:22;;;;;;;10.90;8.60;;;;;;;15.48;100.00;99534.33;270237;1272;22593;-87
2023/06/24 19:09:27;;;;;;;12.00;8.50;;;;;;;15.44;100.00;99531.72;271306;1270;22577;-88
2023/06/24 19:15:33;;;;;;;14.50;8.60;;;;;;;15.37;100.00;99535.73;270709;1272;22369;-87
2023/06/24 19:22:21;;;;;;;11.60;9.00;;;;;;;15.32;100.00;99529.88;271283;1268;22574;-89
2023/06/24 19:28:30;;;;;;;14.10;9.50;;;;;;;15.23;100.00;99526.09;270842;1259;23369;-88
2023/06/24 19:36:30;;;;;;;13.00;10.00;;;;;;;15.17;100.00;99537.36;273059;1269;22593;-88
2023/06/24 19:42:34;;;;;;;12.70;9.20;;;;;;;15.21;100.00;99546.49;272336;1269;24364;-87
2023/06/24 19:49:23;;;;;;;10.40;9.00;;;;;;;15.25;100.00;99544.13;273071;1269;22264;-89
2023/06/24 19:56:40;;;;;;;13.30;8.90;;;;;;;15.27;100.00;99543.34;270966;1269;22339;-89
2023/06/24 20:03:51;;;;;;;12.50;9.70;;;;;;;15.28;100.00;99544.77;273130;1269;22684;-88
2023/06/24 20:10:34;;;;;;;14.10;9.10;;;;;;;15.25;100.00;99542.15;273024;1275;22456;-87
2023/06/24 20:18:27;;;;;;;12.00;9.00;;;;;;;15.23;100.00;99542.47;270900;1272;22573;-88
2023/06/24 20:24:50;;;;;;;12.30;9.20;;;;;;;15.21;100.00;99542.71;268744;1272;22630;-88
2023/06/24 20:31:02;;;;;;;13.00;8.90;;;;;;;15.19;100.00;99541.38;269141;1272;22651;-88
2023/06/24 20:45:32;;;;;;;12.30;9.80;;;;;;;15.13;100.00;99546.89;269754;1267;27873;-88
2023/06/24 20:52:41;;;;;;;;;;;;;;;;;;;;;
2023/06/24 21:00:05;;;;;;;11.30;9.70;;;;;;;15.14;100.00;99548.45;269958;1272;22684;-88
2023/06/24 21:14:25;;;;;;;14.30;11.10;;;;;;;15.08;100.00;99542.53;269872;1266;22499;-88
2023/06/24 21:22:08;;;;;;;14.70;11.70;;;;;;;15.03;100.00;99542.20;269820;1269;22573;-86
2023/06/24 21:37:24;;;;;;;19.50;11.00;;;;;;;15.05;100.00;99528.91;269907;1276;22718;-88
2023/06/24 21:45:20;;;;;;;15.90;10.20;;;;;;;14.94;100.00;99525.02;268396;1290;22624;-88
2023/06/24 21:53:07;;;;;;;14.50;10.30;;;;;;;14.81;100.00;99530.04;266966;1290;22287;-89
2023/06/24 22:00:28;;;;;;;13.20;10.30;;;;;;;14.70;100.00;99525.98;268953;1287;23595;-88
2023/06/24 22:16:21;;;;;;;16.30;10.90;;;;;;;14.62;100.00;99521.77;267461;1287;22450;-89
2023/06/24 22:23:12;;;;;;;16.40;10.30;;;;;;;14.60;100.00;99522.27;268677;1278;22737;-89
2023/06/24 22:38:25;;;;;;;12.30;9.60;;;;;;;14.42;100.00;99516.75;268637;1274;22573;-88
2023/06/24 22:45:57;;;;;;;18.60;12.00;;;;;;;14.36;100.00;99514.99;269177;1268;22198;-88
2023/06/24 23:00:44;;;;;;;13.80;10.80;;;;;;;14.12;100.00;99508.48;268284;1272;22602;-91
2023/06/24 23:08:36;;;;;;;14.00;10.20;;;;;;;14.06;100.00;99499.17;268817;1272;22565;-89
2023/06/24 23:15:54;;;;;;;12.70;8.70;;;;;;;14.00;100.00;99490.65;268748;1267;22694;-88
2023/06/24 23:23:36;;;;;;;18.30;10.70;;;;;;;13.97;100.00;99490.55;268529;1272;22566;-89
2023/06/24 23:31:04;;;;;;;13.40;9.60;;;;;;;13.90;100.00;99489.42;269063;1272;22541;-90
2023/06/24 23:38:57;;;;;;;14.50;9.50;;;;;;;13.89;100.00;99490.98;269054;1264;22617;-89
2023/06/24 23:45:37;;;;;;;14.80;9.90;;;;;;;13.89;100.00;99487.84;269725;1272;22545;-89
2023/06/24 23:53:30;;;;;;;13.20;10.00;;;;;;;13.90;100.00;99482.41;270026;1273;22211;-88
